Aérodrome :
LOGIN :

S'inscrire | Disclaimer

   EN    FR    IT 

 










Légende :    VFR   VFR Marginal   IFR   IFR Intensif   IFR Très Intensif
Visi : 
Plafond : 
>= 8 km
>= 3000ft
5 à 8 km
1000 à 3000 ft
1500m à 5 km
500 à 1000 ft
800 à 1500m
200 à 500 ft
< 800m
< 200 ft
Symboles :   Orages  Brouillard  Fortes neiges  Fortes précipitations  Vent > 20 kt
SIGMETs :   Divers  Orages  Givrage  Turbulence  Onde Orograph.  Cendres Volcan.







- Altitude de l'aérodrome : 364 ft
- Code IATA : FRA


EDDF - Frankfurt Int.

DERNIER METAR :
  • 191050Z 19005KT 120V260 CAVOK 17/10 Q1014 NOSIG

METARs EXPIRÉS :
  • 191020Z 20003KT 130V270 CAVOK 16/10 Q1014 NOSIG
  • 190950Z VRB02KT CAVOK 15/10 Q1014 NOSIG
  • 190920Z VRB02KT CAVOK 15/11 Q1014 NOSIG
  • 190850Z VRB01KT CAVOK 13/10 Q1014 NOSIG
  • 190820Z 16001KT CAVOK 12/10 Q1014 NOSIG

TAF TAF EDDF
Valide du 19 à 06h jusqu'au 20 à 12h UTC


190500Z 1906/2012 06004KT CAVOK
PROB30
TEMPO 1906/1908 3000 BCFG
TEMPO 1910/1917 16005KT
PROB30
TEMPO 2006/2008 3000 BCFG
BECMG 2007/2009 19007KT
TEMPO 2009/2012 4500 -RA FEW012 SCT020 BKN030
Pas de NOTAMs connus pour ce terrain.



MET'MAP, la Météo Aéronautique d'un coup d'oeil ! - Copyright ORBIFLY Décembre 2007 - Disclaimer

ORBIFLY MET'MAP TEAM :

Programmation & Développement : Alexandra Zaïnal
Conception & Développement : Baudouin d'Aumeries
Co-Programmation & Développement : Marc-Olivier Méhu
Soutien technique & logistique : Manuel Goepfert

Contact : metmap@orbifly.com




SOURCES & CREDITS :

   NOAA